VCP weather

Viracopos International Airport
Campinas, São Paulo, Brazil

Public forecast

Using degrees Celsius for public forecast. Weather courtesy of forecast.io.

Current aviation weather report (METAR) for Viracopos International Airport

Retrieved 2020/08/07 15:00 UTC (39 minutes ago):

SBKP 071500Z VRB03KT CAVOK 23/06 Q1027

Aviation forecast (TAF) for Viracopos International Airport

Retrieved 2020/08/07 12:00 UTC (4 hours ago):

TAF SBKP 070931Z 0712/0812 10005KT CAVOK TX26/0718Z TN13/0809Z BECMG 0712/0714 03005KT PROB30 0715/0718 VRB03KT BECMG 0718/0720 13010KT RMK PGF